Mimbres, New Mexico
Current Conditions -  °F | °C
As of 8:55 PM on Tuesday 25 Nov 2014 (Local Time) from KSVC Reporting Station
Clear Clear  
Wind Chill: 30°   Ceiling: Unl
Heat Index: 37°   Visibility: 10mi
Dew Point:   Wind: 10mph
Humidity: 20%   Direction: 350°N
Pressure: 30.35"   Gusts: NA
Location:  32.86°N, 107.98°W
Report Text: KSVC 260355Z AUTO 35009KT 10SM CLR 03/M18 A3035 RMK AO2
Loading
Personal Weather Stations






























Interactive Weather Map New forecast layout! Learn more

10-Day Weather Forecast

Advertisements
Track Severe Weather on mobile